KBIX/BIX METAR and TAF weather

Enter ICAO airport designator
Station Type Date Time Source
KBIX METAR 2019/10/18 10:56 UTC NOAA

KBIX 181056Z AUTO 06008KT 10SM FEW100 BKN130 OVC190 15/10 A2988 RMK AO2 SLP121 T01520095


Station Type Date Time Source
KBIX Decoded METAR 2019/10/18 10:56 UTC NOAA

Keesler Air Force Base / Biloxi, MS, United States (KBIX) 30-25N 088-55W
Oct 18, 2019 - 06:56 AM EDT / 2019.10.18 1056 UTC
Wind: from the ENE (060 degrees) at 9 MPH (8 KT):0
Visibility: 10 mile(s):0
Sky conditions: overcast
Temperature: 59.4 F (15.2 C)
Dew Point: 49.1 F (9.5 C)
Relative Humidity: 68%
Pressure (altimeter): 29.88 in. Hg (1011 hPa)
ob: KBIX 181056Z AUTO 06008KT 10SM FEW100 BKN130 OVC190 15/10 A2988 RMK AO2 SLP121 T01520095
cycle: 11

Station Type Date Time Source
KBIX TAF 2019/10/18 10:23 UTC NOAA

TAF KBIX 181000Z 1810/1916 06012KT 9999 SCT030 BKN065 QNH2981INS
BECMG 1821/1822 04015G25KT 6000 -SHRA FEW015 BKN025 QNH2975INS
BECMG 1902/1903 04015KT 9999 NSW FEW015 BKN025 QNH2975INS
BECMG 1912/1913 03012KT 9999 BKN009 QNH2977INS
BECMG 1915/1916 02009KT 9000 BR SCT009 QNH2980INS TX22/1816Z TN15/1813Z

Example: see airport list